Global Enterprise — 3FCJ6 — position and weather

sailwx.info

Track history (hours):
 
Tides and Currents Weather Stations Pressure Air Temp Water Temp Dewpoint Dewpoint Depression Visibility Wind Speed Wind Dir Waves Ship Positions

Global Enterprise

Last reported at 2014-Sep-12 11:17 UTC. Time now 2014-Sep-16 19:33 UTC.
Position N 31°02' E 122°54'.

Length 290 m; draft 8.8 m.

Type: Cargo ship. MMSI: 356308000.

Date/timePositionNaut miles runAvg speedWind from/ knotsBaromVisibWave heightAir tempDewpointWater temp
2014-Sep-12 11:17N 31°02' E 122°54'1114.2
2014-Sep-12 10:31N 31°05' E 122°42'1413.4
2014-Sep-12 09:28N 31°06' E 122°25'2814.3
2014-Sep-12 07:33N 31°15' E 121°55'1313.0
2014-Sep-12 06:33N 31°20' E 121°41'10 9.9
2014-Sep-12 05:33N 31°25' E 121°31'6 6.2
2014-Sep-12 04:33N 31°29' E 121°26'1212.2
2014-Sep-12 03:33N 31°38' E 121°15'6 5.5
2014-Sep-12 02:30N 31°41' E 121°10'0 0.0
2014-Sep-12 01:30N 31°41' E 121°10'0 0.0
2014-Sep-12 00:12N 31°41' E 121°10'0 0.0
2014-Sep-11 23:15N 31°41' E 121°10'0 0.0
2014-Sep-11 22:30N 31°41' E 121°10'0 0.0
2014-Sep-11 21:27N 31°41' E 121°10'0 0.0
2014-Sep-11 20:23N 31°41' E 121°10'0 0.0
2014-Sep-11 19:06N 31°41' E 121°10'0 0.0
2014-Sep-11 17:18N 31°41' E 121°10'0 0.0
2014-Sep-11 16:23N 31°41' E 121°10'0 0.0
2014-Sep-11 15:23N 31°41' E 121°10'0 0.0
2014-Sep-11 14:27N 31°41' E 121°10'0 0.0
2014-Sep-11 13:21N 31°41' E 121°10'0 0.0
2014-Sep-11 11:18N 31°41' E 121°10'0 0.0
2014-Sep-11 10:17N 31°41' E 121°10'0 0.0
2014-Sep-11 09:30N 31°41' E 121°10'0 0.0
2014-Sep-11 06:12N 31°41' E 121°10'0 0.0
2014-Sep-11 04:26N 31°41' E 121°10'0 0.0
2014-Sep-11 03:17N 31°41' E 121°10'0 0.0
2014-Sep-11 02:33N 31°41' E 121°10'0 0.0
2014-Sep-11 01:17N 31°41' E 121°10'0 0.0
2014-Sep-11 00:30N 31°41' E 121°10'0 0.0
2014-Sep-10 22:20N 31°41' E 121°10'0 0.0
2014-Sep-10 21:30N 31°41' E 121°10'0 0.0
2014-Sep-10 20:17N 31°41' E 121°10'0 0.0
2014-Sep-10 19:24N 31°41' E 121°10'0 0.0
2014-Sep-10 18:14N 31°41' E 121°10'0 0.0
2014-Sep-10 17:32N 31°41' E 121°10'0 0.0
2014-Sep-10 16:29N 31°41' E 121°10'0 0.0
2014-Sep-10 15:21N 31°41' E 121°10'0 0.0
2014-Sep-10 14:12N 31°41' E 121°10'0 0.1
2014-Sep-10 13:23N 31°41' E 121°10'0 0.0
2014-Sep-10 12:33N 31°41' E 121°10'0 0.0
2014-Sep-10 10:33N 31°41' E 121°10'0 0.0
2014-Sep-10 08:32N 31°41' E 121°10'0 0.0
2014-Sep-10 07:33N 31°41' E 121°10'6 6.0
2014-Sep-10 06:33N 31°38' E 121°15'1312.5
2014-Sep-10 05:32N 31°29' E 121°27'1010.0
2014-Sep-10 04:33N 31°23' E 121°36'10 9.6
2014-Sep-10 03:33N 31°18' E 121°46'11 9.4
2014-Sep-10 02:21N 31°15' E 121°58'910.0
2014-Sep-10 01:26N 31°12' E 122°08'8 9.4
2014-Sep-10 00:33N 31°07' E 122°16'1111.0
2014-Sep-09 23:32N 31°06' E 122°29'4 3.7
2014-Sep-09 22:25N 31°08' E 122°33'4 4.6
2014-Sep-09 21:29N 31°12' E 122°35'5 5.5
2014-Sep-09 20:32N 31°15' E 122°41'  
2014-Sep-06 08:20N 31°15' E 122°40'0 0.0
2014-Sep-05 21:08N 31°15' E 122°40'20 2.2
2014-Sep-05 12:05N 31°02' E 122°59'17 9.9
2014-Sep-05 10:24N 30°52' E 123°13'2512.7
2014-Sep-05 08:25N 30°26' E 123°11'2512.0
2014-Sep-05 06:21N 30°02' E 123°10'910.7
2014-Sep-05 05:30N 29°57' E 123°01'1612.1
2014-Sep-05 04:10N 29°54' E 122°43'811.1
2014-Sep-05 03:26N 29°46' E 122°41'1010.7
2014-Sep-05 02:32N 29°39' E 122°34'1111.3
2014-Sep-05 01:32N 29°43' E 122°22'1010.5
2014-Sep-05 00:33N 29°50' E 122°13'8 8.2
2014-Sep-04 23:34N 29°54' E 122°05'1 0.4
2014-Sep-04 21:33N 29°54' E 122°05'0 0.0
2014-Sep-04 20:09N 29°54' E 122°05'0 0.0
2014-Sep-04 19:27N 29°54' E 122°05'0 0.0
2014-Sep-04 17:27N 29°54' E 122°05'0 0.0
2014-Sep-04 16:09N 29°54' E 122°05'0 0.0
2014-Sep-04 15:27N 29°54' E 122°05'0 0.0
2014-Sep-04 11:27N 29°54' E 122°05'0 0.1
2014-Sep-04 10:33N 29°54' E 122°05'0 0.0
2014-Sep-04 09:15N 29°54' E 122°05'0 0.0
2014-Sep-04 08:15N 29°54' E 122°05'0 0.0
2014-Sep-04 06:33N 29°54' E 122°05'0 0.0
2014-Sep-04 04:27N 29°54' E 122°05'0 0.0
2014-Sep-04 00:27N 29°54' E 122°05'0 0.0
2014-Sep-03 23:33N 29°54' E 122°05'0 0.0
2014-Sep-03 22:33N 29°54' E 122°05'0 0.0
2014-Sep-03 21:21N 29°54' E 122°05'0 0.0
2014-Sep-03 20:09N 29°54' E 122°05'0 0.0
2014-Sep-03 19:33N 29°54' E 122°05'0 0.0
2014-Sep-03 18:33N 29°54' E 122°05'0 0.0
2014-Sep-03 14:27N 29°54' E 122°05'0 0.0
2014-Sep-03 13:27N 29°54' E 122°05'0 0.0
2014-Sep-03 12:33N 29°54' E 122°05'0 0.0
2014-Sep-03 11:33N 29°54' E 122°05'0 0.0
2014-Sep-03 10:33N 29°54' E 122°05'0 0.0
2014-Sep-03 09:33N 29°54' E 122°05'0 0.1
2014-Sep-03 08:33N 29°54' E 122°05'6 6.0
2014-Sep-03 07:33N 29°57' E 121°59'5 5.0
2014-Sep-03 06:33N 29°57' E 121°53'0 0.1
2014-Sep-03 05:23N 29°57' E 121°54'0 0.1
2014-Sep-03 04:29N 29°57' E 121°54'0 0.1
2014-Sep-03 03:29N 29°57' E 121°53'0 0.1
2014-Sep-03 02:29N 29°57' E 121°54'0 0.0
2014-Sep-03 01:29N 29°57' E 121°54'0 0.0
2014-Sep-03 00:29N 29°57' E 121°54'0 0.0
2014-Sep-02 23:29N 29°57' E 121°54'0 0.0
2014-Sep-02 22:29N 29°57' E 121°54'0 0.1
2014-Sep-02 21:29N 29°57' E 121°53'0 0.2
2014-Sep-02 20:29N 29°57' E 121°53'0 0.1
2014-Sep-02 19:29N 29°57' E 121°53'0 0.0
2014-Sep-02 18:29N 29°57' E 121°53'0 0.2
2014-Sep-02 17:29N 29°57' E 121°53'0 0.1
2014-Sep-02 16:29N 29°57' E 121°54'0 0.0
2014-Sep-02 15:29N 29°57' E 121°54'0 0.0
2014-Sep-02 14:29N 29°57' E 121°54'0 0.0
2014-Sep-02 13:29N 29°57' E 121°54'0 0.0
2014-Sep-02 12:29N 29°57' E 121°54'0 0.0
2014-Sep-02 11:29N 29°57' E 121°54'  
Track history (hours):
 
Tides and Currents Weather Stations Pressure Air Temp Water Temp Dewpoint Dewpoint Depression Visibility Wind Speed Wind Dir Waves Ship Positions

Global Enterprise

Last reported at 2014-Sep-12 11:17 UTC. Time now 2014-Sep-16 19:33 UTC.
Position N 31°02' E 122°54'.

Length 290 m; draft 8.8 m.

Type: Cargo ship. MMSI: 356308000.

Date/timePositionNaut miles runAvg speedWind from/ knotsBaromVisibWave heightAir tempDewpointWater temp
2014-Sep-12 11:17N 31°02' E 122°54'1114.2
2014-Sep-12 10:31N 31°05' E 122°42'1413.4
2014-Sep-12 09:28N 31°06' E 122°25'2814.3
2014-Sep-12 07:33N 31°15' E 121°55'1313.0
2014-Sep-12 06:33N 31°20' E 121°41'10 9.9
2014-Sep-12 05:33N 31°25' E 121°31'6 6.2
2014-Sep-12 04:33N 31°29' E 121°26'1212.2
2014-Sep-12 03:33N 31°38' E 121°15'6 5.5
2014-Sep-12 02:30N 31°41' E 121°10'0 0.0
2014-Sep-12 01:30N 31°41' E 121°10'0 0.0
2014-Sep-12 00:12N 31°41' E 121°10'0 0.0
2014-Sep-11 23:15N 31°41' E 121°10'0 0.0
2014-Sep-11 22:30N 31°41' E 121°10'0 0.0
2014-Sep-11 21:27N 31°41' E 121°10'0 0.0
2014-Sep-11 20:23N 31°41' E 121°10'0 0.0
2014-Sep-11 19:06N 31°41' E 121°10'0 0.0
2014-Sep-11 17:18N 31°41' E 121°10'0 0.0
2014-Sep-11 16:23N 31°41' E 121°10'0 0.0
2014-Sep-11 15:23N 31°41' E 121°10'0 0.0
2014-Sep-11 14:27N 31°41' E 121°10'0 0.0
2014-Sep-11 13:21N 31°41' E 121°10'0 0.0
2014-Sep-11 11:18N 31°41' E 121°10'0 0.0
2014-Sep-11 10:17N 31°41' E 121°10'0 0.0
2014-Sep-11 09:30N 31°41' E 121°10'0 0.0
2014-Sep-11 06:12N 31°41' E 121°10'0 0.0
2014-Sep-11 04:26N 31°41' E 121°10'0 0.0
2014-Sep-11 03:17N 31°41' E 121°10'0 0.0
2014-Sep-11 02:33N 31°41' E 121°10'0 0.0
2014-Sep-11 01:17N 31°41' E 121°10'0 0.0
2014-Sep-11 00:30N 31°41' E 121°10'0 0.0
2014-Sep-10 22:20N 31°41' E 121°10'0 0.0
2014-Sep-10 21:30N 31°41' E 121°10'0 0.0
2014-Sep-10 20:17N 31°41' E 121°10'0 0.0
2014-Sep-10 19:24N 31°41' E 121°10'0 0.0
2014-Sep-10 18:14N 31°41' E 121°10'0 0.0
2014-Sep-10 17:32N 31°41' E 121°10'0 0.0
2014-Sep-10 16:29N 31°41' E 121°10'0 0.0
2014-Sep-10 15:21N 31°41' E 121°10'0 0.0
2014-Sep-10 14:12N 31°41' E 121°10'0 0.1
2014-Sep-10 13:23N 31°41' E 121°10'0 0.0
2014-Sep-10 12:33N 31°41' E 121°10'0 0.0
2014-Sep-10 10:33N 31°41' E 121°10'0 0.0
2014-Sep-10 08:32N 31°41' E 121°10'0 0.0
2014-Sep-10 07:33N 31°41' E 121°10'6 6.0
2014-Sep-10 06:33N 31°38' E 121°15'1312.5
2014-Sep-10 05:32N 31°29' E 121°27'1010.0
2014-Sep-10 04:33N 31°23' E 121°36'10 9.6
2014-Sep-10 03:33N 31°18' E 121°46'11 9.4
2014-Sep-10 02:21N 31°15' E 121°58'910.0
2014-Sep-10 01:26N 31°12' E 122°08'8 9.4
2014-Sep-10 00:33N 31°07' E 122°16'1111.0
2014-Sep-09 23:32N 31°06' E 122°29'4 3.7
2014-Sep-09 22:25N 31°08' E 122°33'4 4.6
2014-Sep-09 21:29N 31°12' E 122°35'5 5.5
2014-Sep-09 20:32N 31°15' E 122°41'  
2014-Sep-06 08:20N 31°15' E 122°40'0 0.0
2014-Sep-05 21:08N 31°15' E 122°40'20 2.2
2014-Sep-05 12:05N 31°02' E 122°59'17 9.9
2014-Sep-05 10:24N 30°52' E 123°13'2512.7
2014-Sep-05 08:25N 30°26' E 123°11'2512.0
2014-Sep-05 06:21N 30°02' E 123°10'910.7
2014-Sep-05 05:30N 29°57' E 123°01'1612.1
2014-Sep-05 04:10N 29°54' E 122°43'811.1
2014-Sep-05 03:26N 29°46' E 122°41'1010.7
2014-Sep-05 02:32N 29°39' E 122°34'1111.3
2014-Sep-05 01:32N 29°43' E 122°22'1010.5
2014-Sep-05 00:33N 29°50' E 122°13'8 8.2
2014-Sep-04 23:34N 29°54' E 122°05'1 0.4
2014-Sep-04 21:33N 29°54' E 122°05'0 0.0
2014-Sep-04 20:09N 29°54' E 122°05'0 0.0
2014-Sep-04 19:27N 29°54' E 122°05'0 0.0
2014-Sep-04 17:27N 29°54' E 122°05'0 0.0
2014-Sep-04 16:09N 29°54' E 122°05'0 0.0
2014-Sep-04 15:27N 29°54' E 122°05'0 0.0
2014-Sep-04 11:27N 29°54' E 122°05'0 0.1
2014-Sep-04 10:33N 29°54' E 122°05'0 0.0
2014-Sep-04 09:15N 29°54' E 122°05'0 0.0
2014-Sep-04 08:15N 29°54' E 122°05'0 0.0
2014-Sep-04 06:33N 29°54' E 122°05'0 0.0
2014-Sep-04 04:27N 29°54' E 122°05'0 0.0
2014-Sep-04 00:27N 29°54' E 122°05'0 0.0
2014-Sep-03 23:33N 29°54' E 122°05'0 0.0
2014-Sep-03 22:33N 29°54' E 122°05'0 0.0
2014-Sep-03 21:21N 29°54' E 122°05'0 0.0
2014-Sep-03 20:09N 29°54' E 122°05'0 0.0
2014-Sep-03 19:33N 29°54' E 122°05'0 0.0
2014-Sep-03 18:33N 29°54' E 122°05'0 0.0
2014-Sep-03 14:27N 29°54' E 122°05'0 0.0
2014-Sep-03 13:27N 29°54' E 122°05'0 0.0
2014-Sep-03 12:33N 29°54' E 122°05'0 0.0
2014-Sep-03 11:33N 29°54' E 122°05'0 0.0
2014-Sep-03 10:33N 29°54' E 122°05'0 0.0
2014-Sep-03 09:33N 29°54' E 122°05'0 0.1
2014-Sep-03 08:33N 29°54' E 122°05'6 6.0
2014-Sep-03 07:33N 29°57' E 121°59'5 5.0
2014-Sep-03 06:33N 29°57' E 121°53'0 0.1
2014-Sep-03 05:23N 29°57' E 121°54'0 0.1
2014-Sep-03 04:29N 29°57' E 121°54'0 0.1
2014-Sep-03 03:29N 29°57' E 121°53'0 0.1
2014-Sep-03 02:29N 29°57' E 121°54'0 0.0
2014-Sep-03 01:29N 29°57' E 121°54'0 0.0
2014-Sep-03 00:29N 29°57' E 121°54'0 0.0
2014-Sep-02 23:29N 29°57' E 121°54'0 0.0
2014-Sep-02 22:29N 29°57' E 121°54'0 0.1
2014-Sep-02 21:29N 29°57' E 121°53'0 0.2
2014-Sep-02 20:29N 29°57' E 121°53'0 0.1
2014-Sep-02 19:29N 29°57' E 121°53'0 0.0
2014-Sep-02 18:29N 29°57' E 121°53'0 0.2
2014-Sep-02 17:29N 29°57' E 121°53'0 0.1
2014-Sep-02 16:29N 29°57' E 121°54'0 0.0
2014-Sep-02 15:29N 29°57' E 121°54'0 0.0
2014-Sep-02 14:29N 29°57' E 121°54'0 0.0
2014-Sep-02 13:29N 29°57' E 121°54'0 0.0
2014-Sep-02 12:29N 29°57' E 121°54'0 0.0
2014-Sep-02 11:29N 29°57' E 121°54'  

Dump ship's entire track history